createdAt,value
2022-11-19T00:00:48.246Z,95173.31
2022-11-19T00:01:53.016Z,95169.84
2022-11-19T00:02:55.445Z,95171.78
2022-11-19T00:04:00.189Z,95169.28
2022-11-19T00:05:02.345Z,95175.31
2022-11-19T00:06:08.944Z,95168.66
2022-11-19T00:07:13.737Z,95168.72
2022-11-19T00:08:18.197Z,95172.31
2022-11-19T00:09:23.126Z,95172.31
2022-11-19T00:10:25.329Z,95169.56
2022-11-19T00:11:45.007Z,95161.06
2022-11-19T00:12:58.518Z,95168.72
2022-11-19T00:14:00.650Z,95165.66
2022-11-19T00:15:05.539Z,95166.50
2022-11-19T00:16:10.071Z,95169.16
2022-11-19T00:17:14.829Z,95165.53
2022-11-19T00:18:16.865Z,95168.16
2022-11-19T00:19:21.722Z,95171.34
2022-11-19T00:20:24.180Z,95169.91
2022-11-19T00:21:29.168Z,95168.88
2022-11-19T00:22:31.440Z,95160.38
2022-11-19T00:23:36.338Z,95156.06
2022-11-19T00:24:41.866Z,95159.56
2022-11-19T00:25:43.915Z,95157.66
2022-11-19T00:26:51.221Z,95164.47
2022-11-19T00:27:55.927Z,95163.94
2022-11-19T00:29:00.695Z,95159.75
2022-11-19T00:30:05.541Z,95155.88
2022-11-19T00:31:17.747Z,95157.66
2022-11-19T00:32:19.963Z,95149.28
2022-11-19T00:33:24.651Z,95152.03
2022-11-19T00:34:26.681Z,95159.84
2022-11-19T00:35:31.374Z,95158.25
2022-11-19T00:36:33.401Z,95156.16
2022-11-19T00:37:38.247Z,95151.75
2022-11-19T00:38:40.485Z,95156.03
2022-11-19T00:39:45.245Z,95155.38
2022-11-19T00:40:47.299Z,95147.69
2022-11-19T00:41:54.586Z,95146.91
2022-11-19T00:43:11.412Z,95147.81
2022-11-19T00:44:16.152Z,95144.41
2022-11-19T00:45:18.162Z,95152.31
2022-11-19T00:46:25.912Z,95143.84
2022-11-19T00:47:27.985Z,95148.69
2022-11-19T00:48:32.792Z,95150.25
2022-11-19T00:49:37.854Z,95155.53
2022-11-19T00:50:42.621Z,95140.94
2022-11-19T00:51:47.351Z,95145.25
2022-11-19T00:52:49.391Z,95152.03
2022-11-19T00:53:54.268Z,95154.63
2022-11-19T00:54:56.257Z,95156.31
2022-11-19T00:56:04.386Z,95150.38
2022-11-19T00:57:13.517Z,95158.88
2022-11-19T00:58:15.684Z,95149.19
2022-11-19T00:59:20.844Z,95152.03
2022-11-19T01:00:28.092Z,95151.22
2022-11-19T01:01:32.775Z,95149.34
2022-11-19T01:02:34.904Z,95152.81
2022-11-19T01:03:41.180Z,95145.88
2022-11-19T01:04:43.358Z,95147.00
2022-11-19T01:05:47.963Z,95151.28
2022-11-19T01:06:49.973Z,95153.59
2022-11-19T01:07:56.790Z,95152.69
2022-11-19T01:08:59.347Z,95153.59
2022-11-19T01:10:03.987Z,95157.03
2022-11-19T01:11:08.148Z,95148.44
2022-11-19T01:12:15.797Z,95158.88
2022-11-19T01:13:33.197Z,95152.69
2022-11-19T01:14:35.385Z,95157.97
2022-11-19T01:15:39.991Z,95150.94
2022-11-19T01:16:44.711Z,95158.00
2022-11-19T01:17:46.732Z,95156.50
2022-11-19T01:18:52.472Z,95152.31
2022-11-19T01:19:55.597Z,95155.66
2022-11-19T01:21:00.362Z,95157.47
2022-11-19T01:22:02.361Z,95161.00
2022-11-19T01:23:06.989Z,95161.84
2022-11-19T01:24:09.356Z,95163.25
2022-11-19T01:25:14.313Z,95164.34
2022-11-19T01:26:19.769Z,95161.84
2022-11-19T01:27:24.434Z,95166.09
2022-11-19T01:28:31.739Z,95165.81
2022-11-19T01:29:33.830Z,95159.06
2022-11-19T01:30:42.089Z,95158.25
2022-11-19T01:31:46.870Z,95164.41
2022-11-19T01:32:48.924Z,95159.06
2022-11-19T01:33:53.816Z,95166.09
2022-11-19T01:34:55.838Z,95159.13
2022-11-19T01:36:02.473Z,95164.13
2022-11-19T01:37:04.501Z,95159.06
2022-11-19T01:38:09.738Z,95160.81
2022-11-19T01:39:11.748Z,95159.25
2022-11-19T01:40:18.209Z,95164.41
2022-11-19T01:41:24.933Z,95162.66
2022-11-19T01:42:58.464Z,95164.41
2022-11-19T01:44:04.837Z,95155.66
2022-11-19T01:45:08.252Z,95158.38
2022-11-19T01:46:13.927Z,95161.69
2022-11-19T01:47:16.120Z,95163.56
2022-11-19T01:48:25.880Z,95163.56
2022-11-19T01:49:27.938Z,95163.66
2022-11-19T01:50:36.444Z,95166.84
2022-11-19T01:51:44.010Z,95167.75
2022-11-19T01:52:46.512Z,95166.16
2022-11-19T01:53:54.780Z,95161.84
2022-11-19T01:54:56.915Z,95158.38
2022-11-19T01:56:04.168Z,95161.91
2022-11-19T01:57:10.270Z,95164.25
2022-11-19T01:58:22.348Z,95162.75
2022-11-19T01:59:26.509Z,95165.38
2022-11-19T02:00:31.465Z,95167.13
2022-11-19T02:01:33.965Z,95163.66
2022-11-19T02:02:38.846Z,95166.00
2022-11-19T02:03:41.595Z,95169.41
2022-11-19T02:04:46.624Z,95165.03
2022-11-19T02:05:49.975Z,95164.13
2022-11-19T02:06:55.641Z,95170.25
2022-11-19T02:07:58.808Z,95167.75
2022-11-19T02:09:03.524Z,95168.56
2022-11-19T02:10:07.086Z,95164.41
2022-11-19T02:11:40.051Z,95162.75
2022-11-19T02:12:48.079Z,95160.81
2022-11-19T02:14:06.046Z,95167.56
2022-11-19T02:15:22.753Z,95161.69
2022-11-19T02:16:32.722Z,95166.91
2022-11-19T02:17:47.169Z,95170.38
2022-11-19T02:18:57.167Z,95174.53
2022-11-19T02:20:27.012Z,95169.25
2022-11-19T02:21:37.099Z,95173.53
2022-11-19T02:23:07.696Z,95162.13
2022-11-19T02:24:40.544Z,95167.19
2022-11-19T02:26:05.761Z,95157.03
2022-11-19T02:27:40.946Z,95158.88
2022-11-19T02:28:47.430Z,95159.47
2022-11-19T02:30:05.997Z,95164.56
2022-11-19T02:31:14.663Z,95161.22
2022-11-19T02:32:21.294Z,95156.16
2022-11-19T02:33:30.994Z,95161.50
2022-11-19T02:34:41.603Z,95164.00
2022-11-19T02:35:52.859Z,95162.31
2022-11-19T02:37:00.527Z,95163.16
2022-11-19T02:38:12.949Z,95168.78
2022-11-19T02:39:19.310Z,95171.44
2022-11-19T02:40:35.647Z,95169.00
2022-11-19T02:41:41.173Z,95178.38
2022-11-19T02:42:53.162Z,95178.53
2022-11-19T02:44:21.074Z,95183.56
2022-11-19T02:45:37.977Z,95182.00
2022-11-19T02:46:41.947Z,95174.28
2022-11-19T02:47:50.483Z,95173.56
2022-11-19T02:48:53.782Z,95183.03
2022-11-19T02:50:04.279Z,95181.38
2022-11-19T02:51:08.229Z,95181.16
2022-11-19T02:52:13.505Z,95178.66
2022-11-19T02:53:15.891Z,95184.56
2022-11-19T02:54:22.677Z,95178.38
2022-11-19T02:55:24.986Z,95183.66
2022-11-19T02:56:51.952Z,95176.72
2022-11-19T02:57:59.534Z,95179.00
2022-11-19T02:59:17.760Z,95186.63
2022-11-19T03:00:35.121Z,95181.63
2022-11-19T03:01:59.322Z,95179.91
2022-11-19T03:03:27.501Z,95186.91
2022-11-19T03:04:33.292Z,95184.16
2022-11-19T03:05:41.742Z,95174.00
2022-11-19T03:06:46.595Z,95185.91
2022-11-19T03:07:48.994Z,95183.47
2022-11-19T03:08:54.437Z,95183.53
2022-11-19T03:09:59.911Z,95183.56
2022-11-19T03:11:14.439Z,95178.53
2022-11-19T03:12:23.309Z,95186.09
2022-11-19T03:13:45.897Z,95190.19
2022-11-19T03:15:10.694Z,95184.94
2022-11-19T03:16:33.056Z,95179.00
2022-11-19T03:17:53.105Z,95182.34
2022-11-19T03:18:59.738Z,95181.25
2022-11-19T03:20:07.844Z,95179.06
2022-11-19T03:21:17.163Z,95182.56
2022-11-19T03:22:25.361Z,95180.03
2022-11-19T03:23:32.317Z,95188.47
2022-11-19T03:24:40.229Z,95177.41
2022-11-19T03:25:47.441Z,95184.97
2022-11-19T03:26:56.194Z,95183.38
2022-11-19T03:28:02.281Z,95188.53
2022-11-19T03:29:12.621Z,95189.44
2022-11-19T03:30:17.202Z,95194.56
2022-11-19T03:31:27.873Z,95192.56
2022-11-19T03:32:35.031Z,95194.16
2022-11-19T03:33:46.208Z,95191.53
2022-11-19T03:34:53.474Z,95196.88
2022-11-19T03:36:04.051Z,95193.53
2022-11-19T03:37:09.709Z,95197.88
2022-11-19T03:38:19.115Z,95198.81
2022-11-19T03:39:22.838Z,95200.22
2022-11-19T03:40:29.766Z,95206.22
2022-11-19T03:41:34.559Z,95205.41
2022-11-19T03:42:44.005Z,95202.84
2022-11-19T03:43:52.185Z,95201.22
2022-11-19T03:45:02.798Z,95209.09
2022-11-19T03:46:09.273Z,95207.78
2022-11-19T03:47:18.954Z,95204.16
2022-11-19T03:48:23.519Z,95208.53
2022-11-19T03:49:34.862Z,95211.47
2022-11-19T03:50:49.233Z,95215.00
2022-11-19T03:51:57.763Z,95216.78
2022-11-19T03:53:04.480Z,95221.03
2022-11-19T03:54:07.206Z,95219.31
2022-11-19T03:55:12.471Z,95216.38
2022-11-19T03:56:20.692Z,95217.16
2022-11-19T03:57:27.891Z,95219.31
2022-11-19T03:58:30.004Z,95215.00
2022-11-19T03:59:37.498Z,95211.25
2022-11-19T04:00:40.002Z,95212.16
2022-11-19T04:01:46.918Z,95208.94
2022-11-19T04:02:49.039Z,95210.84
2022-11-19T04:04:05.931Z,95204.84
2022-11-19T04:05:13.391Z,95194.72
2022-11-19T04:06:15.542Z,95200.75
2022-11-19T04:07:24.593Z,95203.16
2022-11-19T04:08:26.711Z,95204.84
2022-11-19T04:09:31.357Z,95204.84
2022-11-19T04:10:33.438Z,95202.19
2022-11-19T04:11:38.052Z,95206.22
2022-11-19T04:12:40.127Z,95211.50
2022-11-19T04:13:44.849Z,95204.72
2022-11-19T04:14:47.649Z,95207.94
2022-11-19T04:15:52.445Z,95202.84
2022-11-19T04:16:54.547Z,95212.91
2022-11-19T04:17:59.688Z,95211.66
2022-11-19T04:19:01.724Z,95210.75
2022-11-19T04:20:07.208Z,95209.09
2022-11-19T04:21:11.982Z,95217.56
2022-11-19T04:22:16.723Z,95219.56
2022-11-19T04:23:18.774Z,95211.78
2022-11-19T04:24:23.407Z,95210.13
2022-11-19T04:25:25.611Z,95213.22
2022-11-19T04:26:30.225Z,95211.25
2022-11-19T04:27:32.464Z,95205.69
2022-11-19T04:28:37.243Z,95215.13
2022-11-19T04:29:39.278Z,95214.16
2022-11-19T04:30:44.079Z,95214.72
2022-11-19T04:31:46.257Z,95219.88
2022-11-19T04:32:51.640Z,95208.13
2022-11-19T04:34:02.637Z,95212.91
2022-11-19T04:35:08.275Z,95213.22
2022-11-19T04:36:13.058Z,95208.19
2022-11-19T04:37:17.718Z,95205.41
2022-11-19T04:38:19.820Z,95209.59
2022-11-19T04:39:24.466Z,95214.78
2022-11-19T04:40:26.529Z,95209.44
2022-11-19T04:41:31.285Z,95205.94
2022-11-19T04:42:33.321Z,95210.22
2022-11-19T04:43:38.057Z,95219.03
2022-11-19T04:44:40.161Z,95219.09
2022-11-19T04:45:44.754Z,95216.53
2022-11-19T04:46:46.883Z,95210.75
2022-11-19T04:47:51.581Z,95210.88
2022-11-19T04:48:53.638Z,95220.28
2022-11-19T04:49:58.313Z,95215.13
2022-11-19T04:51:00.324Z,95222.91
2022-11-19T04:52:08.088Z,95218.69
2022-11-19T04:53:10.202Z,95218.59
2022-11-19T04:54:15.114Z,95216.16
2022-11-19T04:55:17.365Z,95223.88
2022-11-19T04:56:24.569Z,95216.03
2022-11-19T04:57:26.642Z,95222.06
2022-11-19T04:58:31.387Z,95218.59
2022-11-19T04:59:33.493Z,95219.22
2022-11-19T05:00:38.332Z,95221.03
2022-11-19T05:01:40.466Z,95218.59
2022-11-19T05:02:45.693Z,95221.94
2022-11-19T05:03:48.189Z,95215.97
2022-11-19T05:04:52.901Z,95219.38
2022-11-19T05:05:55.414Z,95221.03
2022-11-19T05:07:00.127Z,95217.75
2022-11-19T05:08:05.607Z,95226.41
2022-11-19T05:09:10.310Z,95220.16
2022-11-19T05:10:12.394Z,95220.19
2022-11-19T05:11:17.148Z,95214.22
2022-11-19T05:12:19.462Z,95219.44
2022-11-19T05:13:24.134Z,95214.22
2022-11-19T05:14:30.373Z,95224.59
2022-11-19T05:15:35.437Z,95219.44
2022-11-19T05:16:37.502Z,95218.59
2022-11-19T05:17:44.865Z,95215.13
2022-11-19T05:18:49.222Z,95215.97
2022-11-19T05:19:54.025Z,95215.19
2022-11-19T05:20:56.060Z,95220.41
2022-11-19T05:22:00.679Z,95217.91
2022-11-19T05:23:05.932Z,95225.56
2022-11-19T05:24:11.340Z,95224.66
2022-11-19T05:25:13.396Z,95215.97
2022-11-19T05:26:18.041Z,95218.59
2022-11-19T05:27:20.094Z,95223.00
2022-11-19T05:28:38.392Z,95221.16
2022-11-19T05:29:41.414Z,95224.59
2022-11-19T05:30:46.141Z,95222.78
2022-11-19T05:31:48.329Z,95220.28
2022-11-19T05:32:53.036Z,95219.44
2022-11-19T05:33:59.273Z,95216.09
2022-11-19T05:35:01.468Z,95215.28
2022-11-19T05:36:06.653Z,95215.34
2022-11-19T05:37:09.029Z,95221.13
2022-11-19T05:38:16.548Z,95217.63
2022-11-19T05:39:22.070Z,95213.31
2022-11-19T05:40:27.329Z,95218.53
2022-11-19T05:41:29.392Z,95215.84
2022-11-19T05:42:34.318Z,95215.00
2022-11-19T05:43:39.062Z,95222.44
2022-11-19T05:44:41.411Z,95216.66
2022-11-19T05:45:46.126Z,95219.03
2022-11-19T05:46:48.333Z,95209.88
2022-11-19T05:47:57.535Z,95214.88
2022-11-19T05:48:59.883Z,95221.66
2022-11-19T05:50:04.573Z,95218.06
2022-11-19T05:51:06.741Z,95221.31
2022-11-19T05:52:11.578Z,95225.78
2022-11-19T05:53:18.870Z,95228.22
2022-11-19T05:54:21.595Z,95222.94
2022-11-19T05:55:26.483Z,95228.06
2022-11-19T05:56:33.952Z,95230.69
2022-11-19T05:57:37.177Z,95219.72
2022-11-19T05:58:41.943Z,95227.38
2022-11-19T05:59:44.406Z,95228.06
2022-11-19T06:00:49.099Z,95222.16
2022-11-19T06:01:51.147Z,95226.53
2022-11-19T06:02:55.883Z,95226.53
2022-11-19T06:03:58.178Z,95233.41
2022-11-19T06:05:02.921Z,95233.22
2022-11-19T06:06:05.599Z,95230.78
2022-11-19T06:07:10.351Z,95227.53
2022-11-19T06:08:12.462Z,95231.94
2022-11-19T06:09:20.250Z,95231.81
2022-11-19T06:10:22.447Z,95231.13
2022-11-19T06:11:39.524Z,95236.25
2022-11-19T06:12:46.441Z,95232.09
2022-11-19T06:13:48.598Z,95234.59
2022-11-19T06:14:53.414Z,95234.47
2022-11-19T06:15:55.559Z,95227.56
2022-11-19T06:17:02.636Z,95231.19
2022-11-19T06:18:05.114Z,95236.34
2022-11-19T06:19:09.879Z,95233.00
2022-11-19T06:20:12.075Z,95235.63
2022-11-19T06:21:17.331Z,95233.88
2022-11-19T06:22:22.118Z,95241.41
2022-11-19T06:23:24.367Z,95238.78
2022-11-19T06:24:31.756Z,95240.44
2022-11-19T06:25:33.969Z,95234.50
2022-11-19T06:26:38.890Z,95240.44
2022-11-19T06:27:41.121Z,95244.53
2022-11-19T06:28:46.124Z,95243.91
2022-11-19T06:29:51.097Z,95249.66
2022-11-19T06:30:59.713Z,95237.91
2022-11-19T06:32:01.873Z,95238.69
2022-11-19T06:33:06.695Z,95245.72
2022-11-19T06:34:09.096Z,95241.22
2022-11-19T06:35:14.509Z,95249.81
2022-11-19T06:36:16.870Z,95249.81
2022-11-19T06:37:21.781Z,95246.50
2022-11-19T06:38:24.146Z,95248.28
2022-11-19T06:39:31.403Z,95249.19
2022-11-19T06:40:36.147Z,95249.81
2022-11-19T06:41:38.212Z,95249.66
2022-11-19T06:42:46.090Z,95249.94
2022-11-19T06:43:57.102Z,95246.53
2022-11-19T06:45:06.447Z,95256.81
2022-11-19T06:46:13.779Z,95256.78
2022-11-19T06:47:29.120Z,95254.06
2022-11-19T06:48:38.612Z,95253.22
2022-11-19T06:49:51.257Z,95250.53
2022-11-19T06:51:00.517Z,95253.97
2022-11-19T06:52:24.567Z,95255.44
2022-11-19T06:53:32.618Z,95258.78
2022-11-19T06:54:43.693Z,95263.66
2022-11-19T06:56:10.086Z,95256.31
2022-11-19T06:57:18.079Z,95260.38
2022-11-19T06:58:34.292Z,95261.31
2022-11-19T06:59:41.488Z,95268.25
2022-11-19T07:00:57.112Z,95265.81
2022-11-19T07:02:12.385Z,95266.22
2022-11-19T07:03:23.087Z,95270.88
2022-11-19T07:04:38.412Z,95273.66
2022-11-19T07:05:44.375Z,95272.81
2022-11-19T07:06:49.470Z,95276.16
2022-11-19T07:08:05.868Z,95275.38
2022-11-19T07:09:20.701Z,95277.19
2022-11-19T07:10:35.349Z,95270.22
2022-11-19T07:11:41.437Z,95274.31
2022-11-19T07:13:02.509Z,95272.56
2022-11-19T07:14:06.587Z,95281.00
2022-11-19T07:15:18.746Z,95272.34
2022-11-19T07:16:27.661Z,95280.78
2022-11-19T07:17:50.740Z,95278.38
2022-11-19T07:19:03.395Z,95282.97
2022-11-19T07:20:14.862Z,95282.28
2022-11-19T07:21:17.493Z,95283.19
2022-11-19T07:22:28.790Z,95284.09
2022-11-19T07:23:33.961Z,95284.72
2022-11-19T07:24:56.967Z,95282.84
2022-11-19T07:26:05.251Z,95287.44
2022-11-19T07:27:14.233Z,95286.78
2022-11-19T07:28:16.383Z,95283.41
2022-11-19T07:29:34.384Z,95285.91
2022-11-19T07:30:50.662Z,95288.63
2022-11-19T07:31:55.973Z,95291.06
2022-11-19T07:33:00.044Z,95287.56
2022-11-19T07:34:08.805Z,95286.88
2022-11-19T07:35:17.622Z,95286.16
2022-11-19T07:36:20.429Z,95287.03
2022-11-19T07:37:25.487Z,95280.19
2022-11-19T07:38:34.107Z,95286.16
2022-11-19T07:39:43.990Z,95286.09
2022-11-19T07:40:53.756Z,95290.00
2022-11-19T07:42:13.638Z,95284.84
2022-11-19T07:43:20.662Z,95290.09
2022-11-19T07:44:22.790Z,95297.72
2022-11-19T07:45:27.424Z,95296.06
2022-11-19T07:46:29.444Z,95297.53
2022-11-19T07:47:35.870Z,95299.00
2022-11-19T07:48:37.911Z,95296.47
2022-11-19T07:49:42.569Z,95295.63
2022-11-19T07:50:56.470Z,95301.19
2022-11-19T07:52:01.986Z,95304.81
2022-11-19T07:53:04.505Z,95305.50
2022-11-19T07:54:09.589Z,95300.50
2022-11-19T07:55:14.379Z,95308.50
2022-11-19T07:56:16.923Z,95306.06
2022-11-19T07:57:29.924Z,95307.72
2022-11-19T07:58:32.686Z,95298.16
2022-11-19T07:59:37.332Z,95307.03
2022-11-19T08:00:39.342Z,95309.41
2022-11-19T08:01:44.081Z,95304.00
2022-11-19T08:02:46.538Z,95297.88
2022-11-19T08:03:56.337Z,95309.78
2022-11-19T08:04:59.373Z,95306.47
2022-11-19T08:06:05.973Z,95305.38
2022-11-19T08:07:08.636Z,95310.78
2022-11-19T08:08:13.309Z,95310.50
2022-11-19T08:09:15.436Z,95307.94
2022-11-19T08:10:20.216Z,95309.78
2022-11-19T08:11:23.336Z,95308.84
2022-11-19T08:12:31.807Z,95304.53
2022-11-19T08:13:34.667Z,95314.00
2022-11-19T08:14:39.310Z,95310.66
2022-11-19T08:15:41.442Z,95314.69
2022-11-19T08:16:58.463Z,95316.44
2022-11-19T08:18:16.147Z,95310.13
2022-11-19T08:19:19.208Z,95315.28
2022-11-19T08:20:24.200Z,95303.66
2022-11-19T08:21:26.329Z,95315.59
2022-11-19T08:22:31.068Z,95312.06
2022-11-19T08:23:34.414Z,95307.06
2022-11-19T08:24:39.036Z,95310.13
2022-11-19T08:25:43.387Z,95309.88
2022-11-19T08:26:48.793Z,95317.75
2022-11-19T08:27:54.061Z,95318.72
2022-11-19T08:28:58.779Z,95319.78
2022-11-19T08:30:03.605Z,95319.00
2022-11-19T08:31:06.948Z,95316.56
2022-11-19T08:32:11.581Z,95321.66
2022-11-19T08:33:13.995Z,95321.53
2022-11-19T08:34:19.685Z,95318.09
2022-11-19T08:35:22.303Z,95318.31
2022-11-19T08:36:27.088Z,95315.94
2022-11-19T08:37:31.762Z,95323.47
2022-11-19T08:38:38.817Z,95318.31
2022-11-19T08:39:41.278Z,95320.06
2022-11-19T08:40:45.945Z,95323.19
2022-11-19T08:42:02.966Z,95329.28
2022-11-19T08:43:07.844Z,95333.66
2022-11-19T08:44:10.400Z,95324.00
2022-11-19T08:45:19.566Z,95332.66
2022-11-19T08:46:25.677Z,95330.72
2022-11-19T08:47:27.898Z,95334.94
2022-11-19T08:48:32.993Z,95338.34
2022-11-19T08:49:37.751Z,95330.28
2022-11-19T08:50:45.060Z,95341.06
2022-11-19T08:51:47.193Z,95340.38
2022-11-19T08:52:57.367Z,95344.31
2022-11-19T08:53:59.664Z,95337.94
2022-11-19T08:55:04.534Z,95349.75
2022-11-19T08:56:12.832Z,95343.78
2022-11-19T08:57:18.890Z,95348.28
2022-11-19T08:58:26.817Z,95350.59
2022-11-19T08:59:31.570Z,95345.16
2022-11-19T09:00:36.486Z,95348.34
2022-11-19T09:01:42.090Z,95350.44
2022-11-19T09:02:44.226Z,95348.59
2022-11-19T09:03:49.053Z,95340.91
2022-11-19T09:04:51.442Z,95348.16
2022-11-19T09:06:01.746Z,95348.63
2022-11-19T09:07:03.904Z,95344.47
2022-11-19T09:08:09.083Z,95352.19
2022-11-19T09:09:11.639Z,95343.44
2022-11-19T09:10:16.443Z,95349.94
2022-11-19T09:11:26.659Z,95340.69
2022-11-19T09:12:39.995Z,95346.13
2022-11-19T09:13:47.793Z,95347.38
2022-11-19T09:14:59.412Z,95347.22
2022-11-19T09:16:19.448Z,95349.97
2022-11-19T09:17:35.345Z,95345.78
2022-11-19T09:18:59.296Z,95350.19
2022-11-19T09:20:20.805Z,95349.91
2022-11-19T09:21:31.132Z,95351.88
2022-11-19T09:22:42.869Z,95357.59
2022-11-19T09:23:51.581Z,95364.13
2022-11-19T09:25:09.783Z,95360.22
2022-11-19T09:26:19.623Z,95364.44
2022-11-19T09:27:53.374Z,95355.94
2022-11-19T09:29:10.081Z,95360.06
2022-11-19T09:30:22.293Z,95366.25
2022-11-19T09:31:38.237Z,95358.31
2022-11-19T09:34:24.799Z,95365.97
2022-11-19T09:35:36.023Z,95361.41
2022-11-19T09:36:48.935Z,95364.13
2022-11-19T09:38:19.282Z,95368.38
2022-11-19T09:39:49.771Z,95362.63
2022-11-19T09:41:08.263Z,95366.06
2022-11-19T09:42:32.462Z,95370.50
2022-11-19T09:43:58.064Z,95372.06
2022-11-19T09:45:42.318Z,95375.09
2022-11-19T09:47:09.007Z,95374.31
2022-11-19T09:48:47.931Z,95368.88
2022-11-19T09:50:23.222Z,95373.28
2022-11-19T09:51:37.496Z,95373.94
2022-11-19T09:52:55.777Z,95373.13
2022-11-19T09:54:30.942Z,95371.59
2022-11-19T09:55:48.596Z,95372.78
2022-11-19T09:57:08.703Z,95368.28
2022-11-19T09:58:44.254Z,95379.66
2022-11-19T09:59:57.407Z,95365.75
2022-11-19T10:01:12.121Z,95362.59
2022-11-19T10:02:25.609Z,95371.50
2022-11-19T10:03:36.401Z,95369.28
2022-11-19T10:04:49.284Z,95371.72
2022-11-19T10:06:42.986Z,95370.06
2022-11-19T10:08:10.247Z,95374.91
2022-11-19T10:09:58.761Z,95370.59
2022-11-19T10:11:21.438Z,95366.50
2022-11-19T10:12:57.294Z,95368.31
2022-11-19T10:14:16.743Z,95373.22
2022-11-19T10:15:34.499Z,95365.94
2022-11-19T10:17:03.520Z,95366.78
2022-11-19T10:18:22.052Z,95371.09
2022-11-19T10:19:52.238Z,95367.94
2022-11-19T10:21:10.709Z,95370.22
2022-11-19T10:22:24.290Z,95366.25
2022-11-19T10:23:42.624Z,95363.91
2022-11-19T10:25:07.381Z,95366.63
2022-11-19T10:26:40.358Z,95368.09
2022-11-19T10:28:14.255Z,95360.53
2022-11-19T10:29:23.835Z,95363.47
2022-11-19T10:30:36.391Z,95363.22
2022-11-19T10:31:55.965Z,95366.81
2022-11-19T10:33:20.665Z,95359.44
2022-11-19T10:34:44.597Z,95362.78
2022-11-19T10:36:19.070Z,95353.75
2022-11-19T10:37:35.911Z,95355.78
2022-11-19T10:39:05.080Z,95346.50
2022-11-19T10:40:29.989Z,95355.94
2022-11-19T10:41:49.438Z,95344.72
2022-11-19T10:43:05.405Z,95351.88
2022-11-19T10:44:37.622Z,95348.31
2022-11-19T10:45:54.688Z,95347.00
2022-11-19T10:47:11.935Z,95350.72
2022-11-19T10:48:56.910Z,95350.41
2022-11-19T10:50:11.308Z,95352.47
2022-11-19T10:51:21.395Z,95351.19
2022-11-19T10:52:29.299Z,95352.03
2022-11-19T10:53:39.477Z,95348.78
2022-11-19T10:54:42.053Z,95350.19
2022-11-19T10:55:54.450Z,95347.06
2022-11-19T10:56:58.277Z,95339.94
2022-11-19T10:58:11.180Z,95338.13
2022-11-19T10:59:17.471Z,95335.16
2022-11-19T11:00:22.749Z,95336.63
2022-11-19T11:01:29.982Z,95337.31
2022-11-19T11:02:44.427Z,95343.88
2022-11-19T11:03:57.643Z,95341.41
2022-11-19T11:05:02.849Z,95340.78
2022-11-19T11:06:10.298Z,95342.31
2022-11-19T11:07:12.778Z,95335.47
2022-11-19T11:08:17.904Z,95341.16
2022-11-19T11:09:31.292Z,95341.56
2022-11-19T11:10:42.825Z,95346.00
2022-11-19T11:12:01.513Z,95343.66
2022-11-19T11:13:49.379Z,95341.72
2022-11-19T11:15:01.721Z,95339.66
2022-11-19T11:16:18.746Z,95336.28
2022-11-19T11:17:29.719Z,95343.97
2022-11-19T11:18:35.969Z,95335.63
2022-11-19T11:19:45.606Z,95328.94
2022-11-19T11:20:53.941Z,95336.28
2022-11-19T11:22:03.487Z,95336.16
2022-11-19T11:23:10.191Z,95343.31
2022-11-19T11:24:19.953Z,95336.31
2022-11-19T11:25:24.668Z,95333.22
2022-11-19T11:26:33.874Z,95334.72
2022-11-19T11:27:36.343Z,95338.38
2022-11-19T11:28:58.982Z,95343.56
2022-11-19T11:30:20.935Z,95337.22
2022-11-19T11:31:30.197Z,95336.91
2022-11-19T11:32:35.347Z,95335.31
2022-11-19T11:33:41.031Z,95332.59
2022-11-19T11:34:48.358Z,95341.09
2022-11-19T11:35:54.793Z,95341.09
2022-11-19T11:36:57.787Z,95337.38
2022-11-19T11:38:03.679Z,95325.69
2022-11-19T11:39:06.815Z,95338.22
2022-11-19T11:40:22.289Z,95326.50
2022-11-19T11:42:59.665Z,95329.34
2022-11-19T11:44:04.837Z,95328.72
2022-11-19T11:45:23.309Z,95331.81
2022-11-19T11:46:25.371Z,95324.56
2022-11-19T11:47:33.909Z,95326.25
2022-11-19T11:48:47.456Z,95333.06
2022-11-19T11:50:03.450Z,95322.44
2022-11-19T11:51:05.815Z,95325.63
2022-11-19T11:52:21.048Z,95324.44
2022-11-19T11:53:29.996Z,95321.00
2022-11-19T11:54:34.699Z,95322.91
2022-11-19T11:55:40.527Z,95327.28
2022-11-19T11:56:43.004Z,95321.31
2022-11-19T11:57:55.550Z,95326.16
2022-11-19T11:59:17.855Z,95333.22
2022-11-19T12:00:35.253Z,95328.88
2022-11-19T12:01:40.942Z,95334.59
2022-11-19T12:03:03.730Z,95332.16
2022-11-19T12:04:09.433Z,95330.16
2022-11-19T12:05:20.781Z,95333.31
2022-11-19T12:06:26.748Z,95335.31
2022-11-19T12:08:02.753Z,95336.16
2022-11-19T12:09:10.112Z,95334.56
2022-11-19T12:10:27.281Z,95331.25
2022-11-19T12:11:51.183Z,95340.63
2022-11-19T12:13:11.018Z,95333.66
2022-11-19T12:14:14.223Z,95332.06
2022-11-19T12:15:27.420Z,95330.47
2022-11-19T12:16:44.917Z,95337.44
2022-11-19T12:17:57.720Z,95337.94
2022-11-19T12:19:18.384Z,95338.66
2022-11-19T12:20:35.620Z,95335.00
2022-11-19T12:21:53.065Z,95336.56
2022-11-19T12:23:31.612Z,95340.72
2022-11-19T12:24:53.377Z,95339.88
2022-11-19T12:26:13.025Z,95336.31
2022-11-19T12:27:22.986Z,95336.69
2022-11-19T12:28:41.445Z,95336.41
2022-11-19T12:29:57.099Z,95342.84
2022-11-19T12:31:09.056Z,95340.56
2022-11-19T12:32:32.622Z,95339.44
2022-11-19T12:34:05.604Z,95344.59
2022-11-19T12:35:22.391Z,95344.28
2022-11-19T12:36:40.291Z,95334.28
2022-11-19T12:38:00.527Z,95338.97
2022-11-19T12:39:12.244Z,95336.09
2022-11-19T12:40:39.851Z,95344.13
2022-11-19T12:42:01.438Z,95333.97
2022-11-19T12:43:18.482Z,95344.94
2022-11-19T12:44:34.884Z,95341.00
2022-11-19T12:45:51.119Z,95333.00
2022-11-19T12:47:01.593Z,95335.63
2022-11-19T12:48:32.907Z,95330.63
2022-11-19T12:49:54.372Z,95339.59
2022-11-19T12:51:03.179Z,95331.16
2022-11-19T12:52:27.905Z,95333.00
2022-11-19T12:53:45.202Z,95333.13
2022-11-19T12:54:59.092Z,95338.28
2022-11-19T12:56:13.301Z,95338.38
2022-11-19T12:57:32.883Z,95340.16
2022-11-19T12:58:45.119Z,95334.19
2022-11-19T13:00:07.533Z,95332.44
2022-11-19T13:01:14.629Z,95331.47
2022-11-19T13:02:25.885Z,95335.47
2022-11-19T13:03:46.423Z,95335.00
2022-11-19T13:04:57.741Z,95344.72
2022-11-19T13:06:05.439Z,95342.22
2022-11-19T13:07:18.772Z,95343.66
2022-11-19T13:08:30.979Z,95343.56
2022-11-19T13:09:40.385Z,95341.97
2022-11-19T13:10:53.726Z,95340.47
2022-11-19T13:12:00.769Z,95343.41
2022-11-19T13:13:06.523Z,95352.88
2022-11-19T13:14:17.666Z,95351.06
2022-11-19T13:15:23.648Z,95354.69
2022-11-19T13:16:31.535Z,95350.66
2022-11-19T13:17:38.524Z,95354.84
2022-11-19T13:18:47.063Z,95353.88
2022-11-19T13:19:56.706Z,95353.34
2022-11-19T13:21:05.713Z,95357.72
2022-11-19T13:22:18.988Z,95356.59
2022-11-19T13:23:26.617Z,95356.19
2022-11-19T13:24:35.544Z,95360.72
2022-11-19T13:25:45.158Z,95355.31
2022-11-19T13:26:47.892Z,95361.56
2022-11-19T13:27:54.662Z,95356.22
2022-11-19T13:29:04.229Z,95359.63
2022-11-19T13:30:19.158Z,95358.09
2022-11-19T13:31:31.276Z,95351.84
2022-11-19T13:32:43.455Z,95356.28
2022-11-19T13:33:54.112Z,95353.00
2022-11-19T13:35:08.749Z,95352.97
2022-11-19T13:36:21.351Z,95348.69
2022-11-19T13:37:41.098Z,95358.50
2022-11-19T13:38:51.507Z,95346.56